Time;durP1;ratioP1;P1;durP2;ratioP2;P2;SDS_P1;SDS_P2;PMS_P1;PMS_P2;Temp;Humidity;BMP_temperature;BMP_pressure;BME280_temperature;BME280_humidity;BME280_pressure;Samples;Min_cycle;Max_cycle;Signal;HPM_P1;HPM_P2
2023/12/11 00:00:23;;;;;;;11.53;1.80;;;9.20;99.90;;;;;;5095415;28;20044;-56
2023/12/11 00:02:49;;;;;;;7.43;1.20;;;9.20;99.90;;;;;;5095567;28;20503;-56
2023/12/11 00:05:15;;;;;;;7.10;1.33;;;9.20;99.90;;;;;;5095673;28;20040;-55
2023/12/11 00:07:41;;;;;;;12.97;1.30;;;9.20;99.90;;;;;;5094766;28;20047;-56
2023/12/11 00:10:07;;;;;;;12.57;1.40;;;9.10;99.90;;;;;;5096216;28;20134;-56
2023/12/11 00:12:32;;;;;;;9.95;1.58;;;9.10;99.90;;;;;;5094633;28;20052;-56
2023/12/11 00:14:59;;;;;;;11.77;1.70;;;9.10;99.90;;;;;;5096099;28;20036;-57
2023/12/11 00:17:27;;;;;;;12.23;2.00;;;9.00;99.90;;;;;;5094816;28;20131;-56
2023/12/11 00:19:52;;;;;;;8.70;1.05;;;9.00;99.90;;;;;;5095604;28;20122;-56
2023/12/11 00:22:18;;;;;;;11.00;1.70;;;8.90;99.90;;;;;;5095446;28;20119;-57
2023/12/11 00:24:44;;;;;;;13.23;2.87;;;8.90;99.90;;;;;;5094520;28;20474;-57
2023/12/11 00:27:11;;;;;;;17.97;1.90;;;8.90;99.90;;;;;;5095621;28;20169;-58
2023/12/11 00:29:38;;;;;;;12.48;1.88;;;8.90;99.90;;;;;;5095536;28;20040;-57
2023/12/11 00:32:04;;;;;;;17.15;2.35;;;8.80;99.90;;;;;;5095518;28;20051;-57
2023/12/11 00:34:32;;;;;;;9.65;2.15;;;8.80;99.90;;;;;;5095588;28;20048;-56
2023/12/11 00:36:58;;;;;;;9.55;2.45;;;8.80;99.90;;;;;;5095222;28;20048;-60
2023/12/11 00:39:24;;;;;;;17.60;2.13;;;8.80;99.90;;;;;;5094106;28;20383;-57
2023/12/11 00:41:50;;;;;;;11.63;1.93;;;8.80;99.90;;;;;;5095526;28;20135;-57
2023/12/11 00:44:15;;;;;;;20.93;3.63;;;8.80;99.90;;;;;;5094488;28;20052;-57
2023/12/11 00:46:41;;;;;;;15.67;2.43;;;8.80;99.90;;;;;;5095373;28;20310;-57
2023/12/11 00:49:07;;;;;;;20.67;2.70;;;8.80;99.90;;;;;;5095201;28;20089;-57
2023/12/11 00:51:33;;;;;;;17.07;2.93;;;8.80;99.90;;;;;;5095175;28;20109;-57
2023/12/11 00:53:59;;;;;;;24.95;2.97;;;8.80;99.90;;;;;;5095187;28;20126;-58
2023/12/11 00:56:24;;;;;;;13.30;1.97;;;8.80;99.90;;;;;;5095152;28;20448;-59
2023/12/11 00:58:50;;;;;;;8.50;2.30;;;8.80;99.90;;;;;;5093811;28;20044;-57
2023/12/11 01:01:16;;;;;;;11.33;2.33;;;8.90;99.90;;;;;;5094893;28;20044;-58
2023/12/11 01:03:41;;;;;;;17.40;3.23;;;8.90;99.90;;;;;;5094973;28;20044;-59
2023/12/11 01:06:07;;;;;;;16.97;2.73;;;8.90;99.90;;;;;;5094646;28;20086;-57
2023/12/11 01:08:38;;;;;;;19.30;3.20;;;8.90;99.90;;;;;;5094850;28;20134;-58
2023/12/11 01:11:04;;;;;;;7.57;2.20;;;9.00;99.90;;;;;;5094261;28;20052;-58
2023/12/11 01:13:30;;;;;;;11.25;2.85;;;9.00;99.90;;;;;;5076681;28;20106;-56
2023/12/11 01:15:56;;;;;;;14.63;2.60;;;9.00;99.90;;;;;;5093658;28;20498;-58
2023/12/11 01:18:23;;;;;;;13.18;2.45;;;9.10;99.90;;;;;;5094432;28;20123;-59
2023/12/11 01:20:50;;;;;;;18.45;2.70;;;9.10;99.90;;;;;;5094336;28;20457;-58
2023/12/11 01:23:15;;;;;;;17.70;2.75;;;9.10;99.90;;;;;;5094615;28;20445;-59
2023/12/11 01:25:41;;;;;;;14.27;2.53;;;9.10;99.90;;;;;;5094382;28;20048;-57
2023/12/11 01:28:07;;;;;;;14.60;2.53;;;9.10;99.90;;;;;;5094501;28;20097;-59
2023/12/11 01:30:32;;;;;;;14.77;2.03;;;9.20;99.90;;;;;;5094196;28;20463;-58
2023/12/11 01:32:58;;;;;;;15.60;2.10;;;9.20;99.90;;;;;;5094298;28;20131;-59
2023/12/11 01:35:24;;;;;;;14.40;2.50;;;9.20;99.90;;;;;;5093838;28;20079;-57
2023/12/11 01:37:49;;;;;;;19.23;3.70;;;9.20;99.90;;;;;;5094791;28;20491;-59
2023/12/11 01:40:15;;;;;;;17.27;2.47;;;9.20;99.90;;;;;;5093068;28;20376;-58
2023/12/11 01:42:41;;;;;;;13.23;2.03;;;9.20;99.90;;;;;;5094745;28;20486;-58
2023/12/11 01:45:07;;;;;;;18.90;3.10;;;9.20;99.90;;;;;;5094139;28;20479;-59
2023/12/11 01:47:33;;;;;;;13.27;2.03;;;9.20;99.90;;;;;;5126622;27;20052;-58
2023/12/11 01:49:58;;;;;;;11.40;2.20;;;9.20;99.90;;;;;;5092366;28;20093;-58
2023/12/11 01:52:25;;;;;;;15.47;3.13;;;9.20;99.90;;;;;;5094172;28;20044;-58
2023/12/11 01:54:51;;;;;;;18.05;2.38;;;9.20;99.90;;;;;;5094195;28;20040;-58
2023/12/11 01:57:17;;;;;;;11.32;2.20;;;9.20;99.90;;;;;;5094077;28;20047;-58
2023/12/11 01:59:44;;;;;;;16.47;3.00;;;9.20;99.90;;;;;;5093949;28;20044;-59
2023/12/11 02:02:10;;;;;;;21.10;3.03;;;9.20;99.90;;;;;;5076226;28;20089;-58
2023/12/11 02:04:36;;;;;;;11.43;2.50;;;9.20;99.90;;;;;;5093845;28;20090;-58
2023/12/11 02:07:01;;;;;;;13.13;1.80;;;9.20;99.90;;;;;;5093951;28;20048;-59
2023/12/11 02:09:27;;;;;;;12.70;2.17;;;9.20;99.90;;;;;;5091974;28;20088;-57
2023/12/11 02:11:53;;;;;;;12.30;2.23;;;9.20;99.90;;;;;;5093840;28;20044;-58
2023/12/11 02:14:18;;;;;;;15.53;3.70;;;9.20;99.90;;;;;;5093766;28;20044;-60
2023/12/11 02:16:44;;;;;;;17.50;2.43;;;9.20;99.90;;;;;;5093768;28;20055;-58
2023/12/11 02:19:10;;;;;;;13.40;2.87;;;9.20;99.90;;;;;;5093699;28;20082;-57
2023/12/11 02:21:36;;;;;;;15.27;3.10;;;9.20;99.90;;;;;;5093613;28;20044;-56
2023/12/11 02:24:09;;;;;;;13.30;2.80;;;9.20;99.90;;;;;;5093327;28;20047;-54
2023/12/11 02:26:34;;;;;;;15.85;2.15;;;9.20;99.90;;;;;;5093748;28;20040;-50
2023/12/11 02:29:00;;;;;;;13.83;2.10;;;9.20;99.90;;;;;;5093574;28;20123;-54
2023/12/11 02:31:26;;;;;;;14.07;1.93;;;9.10;99.90;;;;;;5093626;28;20087;-54
2023/12/11 02:33:52;;;;;;;14.93;1.90;;;9.10;99.90;;;;;;5093295;28;20048;-53
2023/12/11 02:36:17;;;;;;;12.67;2.83;;;9.10;99.90;;;;;;5093876;28;20135;-52
2023/12/11 02:38:43;;;;;;;11.17;2.63;;;9.10;99.90;;;;;;5093631;28;20076;-53
2023/12/11 02:41:09;;;;;;;12.00;2.30;;;9.10;99.90;;;;;;5093665;28;20044;-52
2023/12/11 02:43:35;;;;;;;19.90;2.77;;;9.10;99.90;;;;;;5093538;28;20052;-55
2023/12/11 02:46:02;;;;;;;14.55;2.72;;;9.10;99.90;;;;;;5093027;28;20048;-54
2023/12/11 02:48:28;;;;;;;18.98;2.03;;;9.10;99.90;;;;;;5093077;28;20055;-51
2023/12/11 02:50:54;;;;;;;14.55;2.13;;;9.10;99.90;;;;;;5093577;28;20036;-53
2023/12/11 02:53:20;;;;;;;13.27;2.10;;;9.10;99.90;;;;;;5093379;28;20406;-54
2023/12/11 02:55:45;;;;;;;17.40;1.80;;;9.10;99.90;;;;;;5093345;28;20060;-54
2023/12/11 02:58:11;;;;;;;12.20;1.50;;;9.10;99.90;;;;;;5093132;28;20044;-54
2023/12/11 03:00:37;;;;;;;15.47;3.03;;;9.10;99.90;;;;;;5091954;28;20093;-53
2023/12/11 03:03:03;;;;;;;14.33;1.87;;;9.10;99.90;;;;;;5092153;28;20075;-52
2023/12/11 03:05:28;;;;;;;12.33;1.80;;;9.10;99.90;;;;;;5093319;28;20040;-56
2023/12/11 03:07:54;;;;;;;8.90;2.07;;;9.10;99.90;;;;;;5092154;28;20391;-53
2023/12/11 03:10:20;;;;;;;17.30;2.03;;;9.10;99.90;;;;;;5093077;28;20044;-52
2023/12/11 03:12:46;;;;;;;16.48;2.30;;;9.10;99.90;;;;;;5093246;28;20139;-55
2023/12/11 03:15:11;;;;;;;16.27;2.07;;;9.20;99.90;;;;;;5093111;28;20135;-53
2023/12/11 03:17:37;;;;;;;16.23;3.17;;;9.20;99.90;;;;;;5092846;28;20091;-56
2023/12/11 03:20:05;;;;;;;18.17;2.90;;;9.20;99.90;;;;;;5093449;28;20040;-55
2023/12/11 03:22:31;;;;;;;16.33;2.60;;;9.20;99.90;;;;;;5092283;28;20054;-54
2023/12/11 03:24:56;;;;;;;15.23;2.93;;;9.20;99.90;;;;;;5092159;28;20048;-53
2023/12/11 03:27:22;;;;;;;15.17;2.57;;;9.20;99.90;;;;;;5093051;28;20048;-53
2023/12/11 03:29:48;;;;;;;15.53;2.37;;;9.20;99.90;;;;;;5093003;28;20040;-55
2023/12/11 03:32:15;;;;;;;18.00;2.40;;;9.20;99.90;;;;;;5092878;28;20079;-56
2023/12/11 03:34:41;;;;;;;18.83;2.65;;;9.20;99.90;;;;;;5093778;28;20059;-53
2023/12/11 03:37:07;;;;;;;17.02;2.47;;;9.30;99.90;;;;;;5096987;28;20040;-52
2023/12/11 03:39:33;;;;;;;13.75;3.22;;;9.30;99.90;;;;;;5096818;28;20058;-54
2023/12/11 03:41:58;;;;;;;17.77;2.57;;;9.30;99.90;;;;;;5096639;28;20494;-54
2023/12/11 03:44:24;;;;;;;18.60;3.23;;;9.30;99.90;;;;;;5096441;28;20536;-54
2023/12/11 03:46:50;;;;;;;18.33;3.30;;;9.20;99.90;;;;;;5096483;28;20047;-55
2023/12/11 03:49:17;;;;;;;14.70;2.23;;;9.30;99.90;;;;;;5096195;28;20039;-56
2023/12/11 03:51:43;;;;;;;;;;;9.30;99.90;;;;;;5096853;28;20054;-56
2023/12/11 03:54:08;;;;;;;17.23;3.10;;;9.30;99.90;;;;;;5096151;28;20010;-57
2023/12/11 03:56:34;;;;;;;20.87;3.80;;;9.30;99.90;;;;;;5096355;28;20497;-55
2023/12/11 03:59:00;;;;;;;16.90;2.40;;;9.30;99.90;;;;;;5094854;28;20047;-55
2023/12/11 04:01:25;;;;;;;21.87;2.40;;;9.30;99.90;;;;;;5095969;28;20202;-55
2023/12/11 04:03:51;;;;;;;15.83;2.57;;;9.30;99.90;;;;;;5096226;28;20044;-55
2023/12/11 04:06:17;;;;;;;26.57;3.20;;;9.40;99.90;;;;;;5096590;28;20084;-55
2023/12/11 04:08:43;;;;;;;17.90;2.80;;;9.30;99.90;;;;;;5095905;28;20063;-55
2023/12/11 04:11:09;;;;;;;18.58;2.20;;;9.40;99.90;;;;;;5096141;28;20559;-54
2023/12/11 04:13:35;;;;;;;19.75;2.67;;;9.40;99.90;;;;;;5095890;28;20087;-54
2023/12/11 04:16:03;;;;;;;17.63;3.53;;;9.40;99.90;;;;;;5095619;28;20052;-54
2023/12/11 04:18:30;;;;;;;12.90;2.45;;;9.40;99.90;;;;;;5095988;28;20044;-53
2023/12/11 04:20:56;;;;;;;16.50;2.75;;;9.40;99.90;;;;;;5095767;28;20051;-53
2023/12/11 04:23:22;;;;;;;14.35;2.35;;;9.40;99.90;;;;;;5096144;28;20048;-56
2023/12/11 04:25:48;;;;;;;18.77;2.30;;;9.40;99.90;;;;;;5095814;28;20097;-55
2023/12/11 04:28:14;;;;;;;20.00;2.03;;;9.40;99.90;;;;;;5095643;28;20290;-53
2023/12/11 04:30:39;;;;;;;18.93;2.70;;;9.40;99.90;;;;;;5095943;28;20437;-54
2023/12/11 04:33:05;;;;;;;24.40;3.03;;;9.40;99.90;;;;;;5095313;28;20055;-52
2023/12/11 04:35:31;;;;;;;20.40;2.97;;;9.40;99.90;;;;;;5095531;28;20791;-51
2023/12/11 04:37:56;;;;;;;21.97;2.30;;;9.40;99.90;;;;;;5095378;28;20049;-54
2023/12/11 04:40:22;;;;;;;22.17;3.10;;;9.40;99.90;;;;;;5095366;28;20075;-57
2023/12/11 04:42:48;;;;;;;18.70;3.30;;;9.40;99.90;;;;;;5095067;28;20510;-56
2023/12/11 04:45:13;;;;;;;14.17;2.20;;;9.40;99.90;;;;;;5094779;28;20097;-55
2023/12/11 04:47:39;;;;;;;12.73;3.33;;;9.40;99.90;;;;;;5095248;28;20044;-55
2023/12/11 04:50:05;;;;;;;19.57;2.57;;;9.40;99.90;;;;;;5095125;28;20043;-54
2023/12/11 04:52:31;;;;;;;24.67;3.35;;;9.40;99.90;;;;;;5095015;28;20387;-57
2023/12/11 04:54:57;;;;;;;13.70;2.97;;;9.40;99.90;;;;;;5095048;28;20051;-55
2023/12/11 04:57:23;;;;;;;13.80;1.80;;;9.30;99.90;;;;;;5094898;28;20040;-54
2023/12/11 04:59:49;;;;;;;15.50;2.33;;;9.40;99.90;;;;;;5094833;28;20036;-55
2023/12/11 05:02:14;;;;;;;12.27;2.27;;;9.30;99.90;;;;;;5095109;28;20047;-59
2023/12/11 05:04:40;;;;;;;19.67;3.00;;;9.30;99.90;;;;;;5093924;28;20051;-53
2023/12/11 05:07:06;;;;;;;15.47;2.90;;;9.40;99.90;;;;;;5094980;28;20048;-56
2023/12/11 05:09:32;;;;;;;19.53;2.53;;;9.40;99.90;;;;;;5093589;28;20113;-55
2023/12/11 05:11:57;;;;;;;14.63;2.13;;;9.40;99.90;;;;;;5093882;28;20767;-55
2023/12/11 05:14:23;;;;;;;11.07;2.47;;;9.40;99.90;;;;;;5094736;28;20075;-56
2023/12/11 05:16:49;;;;;;;19.00;2.87;;;9.40;99.90;;;;;;5094842;28;20048;-55
2023/12/11 05:19:15;;;;;;;16.10;2.97;;;9.40;99.90;;;;;;5094303;28;20084;-56
2023/12/11 05:21:46;;;;;;;15.67;3.63;;;9.40;99.90;;;;;;5094718;28;20044;-56
2023/12/11 05:24:12;;;;;;;21.55;3.33;;;9.40;99.90;;;;;;5094475;28;20040;-56
2023/12/11 05:26:38;;;;;;;16.53;2.63;;;9.40;99.90;;;;;;5094605;28;20036;-55
2023/12/11 05:29:04;;;;;;;12.48;2.88;;;9.40;99.90;;;;;;5093349;28;20032;-56
2023/12/11 05:31:31;;;;;;;16.10;2.60;;;9.40;99.90;;;;;;5094948;28;20083;-56
2023/12/11 05:33:56;;;;;;;;;;;9.40;99.90;;;;;;5094815;28;20286;-57
2023/12/11 05:36:22;;;;;;;11.77;1.88;;;9.30;99.90;;;;;;5094706;28;19927;-56
2023/12/11 05:38:48;;;;;;;19.23;2.90;;;9.30;99.90;;;;;;5094254;28;20047;-56
2023/12/11 05:41:13;;;;;;;13.47;1.83;;;9.30;99.90;;;;;;5094209;28;20051;-56
2023/12/11 05:43:39;;;;;;;16.10;2.90;;;9.30;99.90;;;;;;5094403;28;20058;-58
2023/12/11 05:46:06;;;;;;;16.67;1.97;;;9.30;99.90;;;;;;5094332;28;20391;-58
2023/12/11 05:48:32;;;;;;;;;;;9.40;99.90;;;;;;5093387;28;20387;-56
2023/12/11 05:50:58;;;;;;;10.05;1.95;;;9.40;99.90;;;;;;5093363;28;19926;-56
2023/12/11 05:53:23;;;;;;;19.00;2.03;;;9.40;99.90;;;;;;5094231;28;20055;-56
2023/12/11 05:55:49;;;;;;;13.98;1.50;;;9.40;99.90;;;;;;5094144;28;20130;-56
2023/12/11 05:58:15;;;;;;;10.27;1.20;;;9.40;99.90;;;;;;5093537;28;20052;-56
2023/12/11 06:00:41;;;;;;;11.40;1.50;;;9.40;99.90;;;;;;5094148;28;20475;-59
2023/12/11 06:03:06;;;;;;;15.03;2.00;;;9.40;99.90;;;;;;5092961;28;20122;-57
2023/12/11 06:05:32;;;;;;;13.27;1.67;;;9.40;99.90;;;;;;5093921;28;20448;-57
2023/12/11 06:07:58;;;;;;;17.63;2.47;;;9.40;99.90;;;;;;5092919;28;20047;-58
2023/12/11 06:10:23;;;;;;;17.70;3.20;;;9.40;99.90;;;;;;5093836;28;20387;-56
2023/12/11 06:12:50;;;;;;;10.93;1.43;;;9.40;99.90;;;;;;5093618;28;20044;-57
2023/12/11 06:15:18;;;;;;;13.85;2.75;;;9.40;99.90;;;;;;5093999;28;20052;-55
2023/12/11 06:17:44;;;;;;;14.02;2.08;;;9.30;99.90;;;;;;5092685;28;20044;-52
2023/12/11 06:20:10;;;;;;;10.23;2.10;;;9.30;99.90;;;;;;5093801;28;20493;-50
2023/12/11 06:22:36;;;;;;;16.52;2.42;;;9.30;99.90;;;;;;5093555;28;20564;-52
2023/12/11 06:25:02;;;;;;;13.57;1.73;;;9.20;99.90;;;;;;5093687;28;20083;-53
2023/12/11 06:27:28;;;;;;;17.80;2.40;;;9.30;99.90;;;;;;5093648;28;20050;-52
2023/12/11 06:29:54;;;;;;;15.47;2.20;;;9.30;99.90;;;;;;5093515;28;20387;-53
2023/12/11 06:32:20;;;;;;;11.60;1.98;;;9.20;99.90;;;;;;5093296;28;20270;-53
2023/12/11 06:34:45;;;;;;;10.27;1.73;;;9.30;99.90;;;;;;5093677;28;20040;-54
2023/12/11 06:37:11;;;;;;;16.43;2.17;;;9.20;99.90;;;;;;5093741;28;20394;-56
2023/12/11 06:39:37;;;;;;;10.70;1.80;;;9.20;99.90;;;;;;5093371;28;20036;-55
2023/12/11 06:42:03;;;;;;;17.57;1.93;;;9.20;99.90;;;;;;5091536;28;20052;-55
2023/12/11 06:44:29;;;;;;;13.27;1.90;;;9.20;99.90;;;;;;5092656;28;20321;-55
2023/12/11 06:46:54;;;;;;;10.80;1.73;;;9.20;99.90;;;;;;5093678;28;20066;-55
2023/12/11 06:49:20;;;;;;;13.60;2.03;;;9.20;99.90;;;;;;5093774;28;20131;-54
2023/12/11 06:51:46;;;;;;;16.98;3.15;;;9.20;99.90;;;;;;5092418;28;20097;-54
2023/12/11 06:54:12;;;;;;;16.57;2.30;;;9.20;99.90;;;;;;5093336;28;20055;-54
2023/12/11 06:56:38;;;;;;;14.67;2.10;;;9.20;99.90;;;;;;5093574;28;20532;-53
2023/12/11 06:59:03;;;;;;;8.70;1.60;;;9.10;99.90;;;;;;5093530;28;20093;-52
2023/12/11 07:01:34;;;;;;;16.00;1.80;;;9.10;99.90;;;;;;5093847;28;20395;-53
2023/12/11 07:04:00;;;;;;;12.20;2.65;;;9.10;99.90;;;;;;5093337;28;20090;-53
2023/12/11 07:06:26;;;;;;;12.57;1.98;;;9.10;99.90;;;;;;5092278;28;20079;-53
2023/12/11 07:08:51;;;;;;;14.35;1.90;;;9.10;99.90;;;;;;5094308;28;20060;-53
2023/12/11 07:11:17;;;;;;;10.33;3.10;;;9.10;99.90;;;;;;5096239;28;20395;-55
2023/12/11 07:13:44;;;;;;;9.52;2.08;;;9.10;99.90;;;;;;5097159;28;20122;-54
2023/12/11 07:16:09;;;;;;;17.40;2.05;;;9.10;99.90;;;;;;5097049;28;20036;-53
2023/12/11 07:18:36;;;;;;;13.20;2.23;;;9.10;99.90;;;;;;5097179;28;20055;-56
2023/12/11 07:21:06;;;;;;;13.73;1.65;;;9.10;99.90;;;;;;5097128;28;20281;-52
2023/12/11 07:23:31;;;;;;;11.90;2.10;;;9.10;99.90;;;;;;5096917;28;20497;-52
2023/12/11 07:25:57;;;;;;;12.50;1.40;;;9.10;99.90;;;;;;5097350;28;20051;-51
2023/12/11 07:28:23;;;;;;;12.57;1.63;;;9.10;99.90;;;;;;5096926;28;20483;-53
2023/12/11 07:30:48;;;;;;;7.27;1.30;;;9.10;99.90;;;;;;5096847;28;20039;-53
2023/12/11 07:33:14;;;;;;;12.30;1.93;;;9.10;99.90;;;;;;5096935;28;20040;-54
2023/12/11 07:35:40;;;;;;;8.83;1.63;;;9.10;99.90;;;;;;5096654;28;20048;-53
2023/12/11 07:38:06;;;;;;;19.80;2.47;;;9.10;99.90;;;;;;5096575;28;20501;-53
2023/12/11 07:40:31;;;;;;;10.52;1.60;;;9.10;99.90;;;;;;5096924;28;20040;-53
2023/12/11 07:42:57;;;;;;;12.17;1.80;;;9.10;99.90;;;;;;5096964;28;20497;-56
2023/12/11 07:45:24;;;;;;;9.03;1.40;;;9.10;99.90;;;;;;5096540;28;20048;-54
2023/12/11 07:47:49;;;;;;;9.20;1.05;;;9.10;99.90;;;;;;5095603;28;20085;-54
2023/12/11 07:50:16;;;;;;;9.10;1.17;;;9.10;99.90;;;;;;5096283;28;20044;-55
2023/12/11 07:52:41;;;;;;;14.68;1.17;;;9.10;99.90;;;;;;5096405;28;20405;-53
2023/12/11 07:55:08;;;;;;;7.43;1.40;;;9.10;99.90;;;;;;5096120;28;20059;-56
2023/12/11 07:57:33;;;;;;;7.80;1.23;;;9.10;99.90;;;;;;5096326;28;20044;-57
2023/12/11 07:59:59;;;;;;;11.57;1.37;;;9.10;99.90;;;;;;5096320;28;20093;-56
2023/12/11 08:02:25;;;;;;;6.93;1.10;;;9.10;99.90;;;;;;5096404;28;20325;-55
2023/12/11 08:04:51;;;;;;;11.13;1.50;;;9.10;99.90;;;;;;5096265;28;20564;-59
2023/12/11 08:07:18;;;;;;;9.30;1.42;;;9.10;99.90;;;;;;5094852;28;20433;-55
2023/12/11 08:09:44;;;;;;;9.35;2.08;;;9.10;99.90;;;;;;5095790;28;20055;-55
2023/12/11 08:12:10;;;;;;;15.30;2.13;;;9.10;99.90;;;;;;5094910;28;20048;-56
2023/12/11 08:14:37;;;;;;;8.65;1.08;;;9.10;99.90;;;;;;5095996;28;20163;-54
2023/12/11 08:17:03;;;;;;;;;;;9.20;99.90;;;;;;5096629;28;20462;-54
2023/12/11 08:19:29;;;;;;;5.55;1.13;;;9.10;99.90;;;;;;5096035;28;19923;-55
2023/12/11 08:21:54;;;;;;;13.63;1.70;;;9.10;99.90;;;;;;5094211;28;20046;-55
2023/12/11 08:24:20;;;;;;;6.80;1.20;;;9.10;99.90;;;;;;5095896;28;20406;-55
2023/12/11 08:26:46;;;;;;;5.77;1.37;;;9.10;99.90;;;;;;5095821;28;20089;-54
2023/12/11 08:29:12;;;;;;;8.93;1.60;;;9.10;99.90;;;;;;5095759;28;20123;-55
2023/12/11 08:31:38;;;;;;;7.37;1.40;;;9.20;99.90;;;;;;5095649;28;20129;-55
2023/12/11 08:34:04;;;;;;;9.03;1.70;;;9.20;99.90;;;;;;5095587;28;20036;-55
2023/12/11 08:36:29;;;;;;;6.97;1.07;;;9.10;99.90;;;;;;5094549;28;20058;-56
2023/12/11 08:38:55;;;;;;;6.73;1.50;;;9.10;99.90;;;;;;5094379;28;20119;-57
2023/12/11 08:41:21;;;;;;;6.83;1.07;;;9.20;99.90;;;;;;5095338;28;20043;-56
2023/12/11 08:43:46;;;;;;;7.30;1.00;;;9.10;99.90;;;;;;5095465;28;20126;-55
2023/12/11 08:46:12;;;;;;;6.93;0.73;;;9.10;99.90;;;;;;5095466;28;20499;-56
2023/12/11 08:48:38;;;;;;;4.68;2.08;;;9.10;99.90;;;;;;5095392;28;20453;-55
2023/12/11 08:51:05;;;;;;;6.73;1.03;;;9.20;99.90;;;;;;5095286;28;20048;-55
2023/12/11 08:53:30;;;;;;;3.05;0.80;;;9.20;99.90;;;;;;5094351;28;20768;-56
2023/12/11 08:55:56;;;;;;;5.37;1.20;;;9.20;99.90;;;;;;5094280;28;20055;-55
2023/12/11 08:58:23;;;;;;;4.00;0.80;;;9.10;99.90;;;;;;5095198;28;20048;-55
2023/12/11 09:00:49;;;;;;;2.60;0.60;;;9.10;99.90;;;;;;5095255;28;20462;-55
2023/12/11 09:03:15;;;;;;;5.22;0.90;;;9.10;99.90;;;;;;5095116;28;20083;-56
2023/12/11 09:05:41;;;;;;;3.65;0.90;;;9.20;99.90;;;;;;5094774;28;20122;-56
2023/12/11 09:08:07;;;;;;;11.53;1.60;;;9.20;99.90;;;;;;5093302;28;20147;-55
2023/12/11 09:10:35;;;;;;;4.53;1.07;;;9.20;99.90;;;;;;5094712;28;20081;-55
2023/12/11 09:13:01;;;;;;;8.85;1.40;;;9.20;99.90;;;;;;5095325;28;20044;-55
2023/12/11 09:15:28;;;;;;;6.32;1.67;;;9.20;99.90;;;;;;5094835;28;20066;-55
2023/12/11 09:17:54;;;;;;;6.60;1.52;;;9.20;99.90;;;;;;5127831;27;20521;-56
2023/12/11 09:20:19;;;;;;;7.87;2.63;;;9.20;99.90;;;;;;5094557;28;20040;-54
2023/12/11 09:22:46;;;;;;;6.35;1.55;;;9.20;99.90;;;;;;5094716;28;20085;-55
2023/12/11 09:25:12;;;;;;;;;;;9.20;99.90;;;;;;5095484;28;20087;-55
2023/12/11 09:27:38;;;;;;;5.80;1.00;;;9.20;99.90;;;;;;5094585;28;19965;-55
2023/12/11 09:30:10;;;;;;;6.63;1.10;;;9.20;99.90;;;;;;5094558;28;20042;-54
2023/12/11 09:32:37;;;;;;;6.10;1.45;;;9.20;99.90;;;;;;5093640;28;20056;-54
2023/12/11 09:35:03;;;;;;;7.18;1.20;;;9.20;99.90;;;;;;5093262;28;20139;-55
2023/12/11 09:37:28;;;;;;;7.30;1.30;;;9.20;99.90;;;;;;5094638;28;20543;-55
2023/12/11 09:39:54;;;;;;;6.80;1.13;;;9.20;99.90;;;;;;5094446;28;20040;-56
2023/12/11 09:42:20;;;;;;;9.77;1.77;;;9.20;99.90;;;;;;5094376;28;20101;-55
2023/12/11 09:44:47;;;;;;;9.85;2.17;;;9.20;99.90;;;;;;5094302;28;20083;-55
2023/12/11 09:47:29;;;;;;;6.28;1.40;;;9.30;99.90;;;;;;5094226;28;20052;-55
2023/12/11 09:49:55;;;;;;;7.07;1.40;;;9.20;99.90;;;;;;5094226;28;20051;-55
2023/12/11 09:52:22;;;;;;;6.50;1.40;;;9.30;99.90;;;;;;5094068;28;20047;-55
2023/12/11 09:54:48;;;;;;;10.35;1.63;;;9.30;99.90;;;;;;5094192;28;20679;-54
2023/12/11 09:57:15;;;;;;;5.73;1.33;;;9.30;99.90;;;;;;5094111;28;20048;-54
2023/12/11 09:59:42;;;;;;;5.70;1.55;;;9.30;99.90;;;;;;5094020;28;20270;-56
2023/12/11 10:02:16;;;;;;;10.50;1.63;;;9.30;99.90;;;;;;5093963;28;20044;-54
2023/12/11 10:05:04;;;;;;;8.85;2.63;;;9.40;99.90;;;;;;5094073;28;20043;-56
2023/12/11 10:07:34;;;;;;;5.60;1.33;;;9.40;99.90;;;;;;5093893;28;20055;-56
2023/12/11 10:10:22;;;;;;;4.88;1.20;;;9.40;99.90;;;;;;5093556;28;20091;-55
2023/12/11 10:12:49;;;;;;;6.05;1.00;;;9.40;99.90;;;;;;5094015;28;20048;-54
2023/12/11 10:15:31;;;;;;;4.38;0.90;;;9.40;99.90;;;;;;5093938;28;20048;-56
2023/12/11 10:18:08;;;;;;;8.50;2.08;;;9.40;99.90;;;;;;5093818;28;20048;-55
2023/12/11 10:20:36;;;;;;;4.00;0.60;;;9.40;99.90;;;;;;5093771;28;20055;-56
2023/12/11 10:23:16;;;;;;;7.32;0.95;;;9.40;99.90;;;;;;5093615;28;20050;-58
2023/12/11 10:25:44;;;;;;;5.47;0.80;;;9.40;99.90;;;;;;5093811;28;20084;-57
2023/12/11 10:28:15;;;;;;;5.03;0.70;;;9.40;99.90;;;;;;5093792;28;20040;-56
2023/12/11 10:30:54;;;;;;;6.18;0.80;;;9.40;99.90;;;;;;5093836;28;20044;-57
2023/12/11 10:33:22;;;;;;;6.32;0.80;;;9.40;99.90;;;;;;5093491;28;20517;-55
2023/12/11 10:35:49;;;;;;;6.40;0.80;;;9.40;99.90;;;;;;5093723;28;20084;-55
2023/12/11 10:38:21;;;;;;;7.35;0.57;;;9.30;99.90;;;;;;5092885;28;20082;-56
2023/12/11 10:40:46;;;;;;;4.25;0.68;;;9.30;99.90;;;;;;5093708;28;20048;-56
2023/12/11 10:43:13;;;;;;;3.50;0.50;;;9.30;99.90;;;;;;5093612;28;20055;-54
2023/12/11 10:45:40;;;;;;;6.63;0.88;;;9.30;99.90;;;;;;5097701;28;20134;-55
2023/12/11 10:48:06;;;;;;;5.13;0.85;;;9.30;99.90;;;;;;5096447;28;20392;-56
2023/12/11 10:50:33;;;;;;;11.15;1.35;;;9.30;99.90;;;;;;5097623;28;20086;-56
2023/12/11 10:53:03;;;;;;;9.60;1.52;;;9.30;99.90;;;;;;5097726;28;20043;-55
2023/12/11 10:55:29;;;;;;;8.95;1.30;;;9.30;99.90;;;;;;5097955;28;20076;-56
2023/12/11 10:57:58;;;;;;;8.57;1.10;;;9.30;99.90;;;;;;5096462;28;20052;-55
2023/12/11 11:00:24;;;;;;;9.93;1.17;;;9.30;99.90;;;;;;5097349;28;20082;-56
2023/12/11 11:02:53;;;;;;;8.88;0.95;;;9.30;99.90;;;;;;5097289;28;20141;-55
2023/12/11 11:05:20;;;;;;;5.15;0.70;;;9.40;99.90;;;;;;5097361;28;20506;-56
2023/12/11 11:07:51;;;;;;;;;;;9.40;99.90;;;;;;5097796;28;20054;-57
2023/12/11 11:10:20;;;;;;;4.75;0.70;;;9.40;99.90;;;;;;5095626;28;20012;-57
2023/12/11 11:13:05;;;;;;;8.07;1.00;;;9.40;99.90;;;;;;5097069;28;20044;-56
2023/12/11 11:15:30;;;;;;;8.85;1.60;;;9.50;99.90;;;;;;5096261;28;20494;-56
2023/12/11 11:18:01;;;;;;;7.67;1.00;;;9.40;99.90;;;;;;5097523;28;20047;-56
2023/12/11 11:20:37;;;;;;;6.88;0.82;;;9.40;99.90;;;;;;5097093;28;20051;-56
2023/12/11 11:23:15;;;;;;;5.47;1.03;;;9.40;99.90;;;;;;5097156;28;20409;-56
2023/12/11 11:25:42;;;;;;;10.02;1.27;;;9.50;99.90;;;;;;5096752;28;20328;-57
2023/12/11 11:28:28;;;;;;;;;;;9.40;99.90;;;;;;5097403;28;20048;-56
2023/12/11 11:30:53;;;;;;;11.45;1.05;;;9.40;99.90;;;;;;5096633;28;19920;-56
2023/12/11 11:33:20;;;;;;;5.57;1.07;;;9.50;99.90;;;;;;5096939;28;20398;-57
2023/12/11 11:35:45;;;;;;;10.18;1.17;;;9.40;99.90;;;;;;5096626;28;20127;-56
2023/12/11 11:38:12;;;;;;;3.87;0.53;;;9.40;99.90;;;;;;5096633;28;20453;-57
2023/12/11 11:40:38;;;;;;;4.95;0.65;;;9.40;99.90;;;;;;5096787;28;20080;-57
2023/12/11 11:43:07;;;;;;;6.95;0.93;;;9.40;99.90;;;;;;5096592;28;20074;-58
2023/12/11 11:45:33;;;;;;;4.28;0.52;;;9.40;99.90;;;;;;5096788;28;20084;-56
2023/12/11 11:47:58;;;;;;;5.47;1.23;;;9.40;99.90;;;;;;5096557;28;20043;-57
2023/12/11 11:50:24;;;;;;;5.50;0.67;;;9.30;99.90;;;;;;5096424;28;20044;-56
2023/12/11 11:53:06;;;;;;;5.50;1.03;;;9.30;99.90;;;;;;5096204;28;20044;-56
2023/12/11 11:55:32;;;;;;;5.50;0.70;;;9.30;99.90;;;;;;5094884;28;20047;-57
2023/12/11 11:57:57;;;;;;;4.80;0.60;;;9.30;99.90;;;;;;5096346;28;20552;-61
2023/12/11 12:00:33;;;;;;;4.87;0.77;;;9.30;99.90;;;;;;5096392;28;20032;-57
2023/12/11 12:03:04;;;;;;;4.25;0.88;;;9.30;99.90;;;;;;5096313;28;20035;-58
2023/12/11 12:05:30;;;;;;;8.13;0.68;;;9.30;99.90;;;;;;5096068;28;20510;-58
2023/12/11 12:07:56;;;;;;;6.03;1.75;;;9.30;99.90;;;;;;5096319;28;20047;-58
2023/12/11 12:10:22;;;;;;;7.20;1.00;;;9.30;99.90;;;;;;5096332;28;20495;-58
2023/12/11 12:12:55;;;;;;;4.03;0.40;;;9.30;99.90;;;;;;5096148;28;20048;-57
2023/12/11 12:15:20;;;;;;;5.35;0.60;;;9.30;99.90;;;;;;5096079;28;20070;-57
2023/12/11 12:17:46;;;;;;;7.43;0.93;;;9.30;99.90;;;;;;5094871;28;20487;-58
2023/12/11 12:20:13;;;;;;;5.20;0.57;;;9.30;99.90;;;;;;5095983;28;20482;-60
2023/12/11 12:22:58;;;;;;;4.65;0.60;;;9.30;99.90;;;;;;5096020;28;20054;-58
2023/12/11 12:25:26;;;;;;;7.03;0.80;;;9.30;99.90;;;;;;5094972;28;20126;-57
2023/12/11 12:27:54;;;;;;;3.45;0.65;;;9.30;99.90;;;;;;5095806;28;20134;-58
2023/12/11 12:30:20;;;;;;;5.13;0.47;;;9.30;99.90;;;;;;5095648;28;20073;-58
2023/12/11 12:32:51;;;;;;;2.77;0.50;;;9.40;99.90;;;;;;5095725;28;20044;-59
2023/12/11 12:35:20;;;;;;;6.97;0.93;;;9.30;99.90;;;;;;5095639;28;20462;-61
2023/12/11 12:37:49;;;;;;;4.45;0.70;;;9.30;99.90;;;;;;5095599;28;20148;-59
2023/12/11 12:40:17;;;;;;;4.75;1.15;;;9.40;99.90;;;;;;5094653;28;20048;-58
2023/12/11 12:42:42;;;;;;;7.78;0.73;;;9.30;99.90;;;;;;5094365;28;20052;-59
2023/12/11 12:45:09;;;;;;;12.47;1.53;;;9.30;99.90;;;;;;5095548;28;20691;-58
2023/12/11 12:47:45;;;;;;;5.15;1.00;;;9.30;99.90;;;;;;5095489;28;20048;-61
2023/12/11 12:50:23;;;;;;;6.70;0.85;;;9.30;99.90;;;;;;5095664;28;20044;-59